sensor_id;sensor_type;location;lat;lon;timestamp;pressure;altitude;pressure_sealevel;temperature;humidity
76994;BME280;66749;47.406;18.822;2023-08-06T00:00:11;99048.69;;;19.72;95.55
76994;BME280;66749;47.406;18.822;2023-08-06T00:00:43;99050.03;;;19.68;95.82
76994;BME280;66749;47.406;18.822;2023-08-06T00:01:15;99058.63;;;19.70;96.21
76994;BME280;66749;47.406;18.822;2023-08-06T00:01:47;99055.16;;;19.70;96.81
76994;BME280;66749;47.406;18.822;2023-08-06T00:02:19;99061.09;;;19.72;96.58
76994;BME280;66749;47.406;18.822;2023-08-06T00:02:51;99055.97;;;19.70;96.58
76994;BME280;66749;47.406;18.822;2023-08-06T00:03:23;99067.19;;;19.72;96.02
76994;BME280;66749;47.406;18.822;2023-08-06T00:03:55;99071.69;;;19.72;96.25
76994;BME280;66749;47.406;18.822;2023-08-06T00:04:27;99060.63;;;19.68;95.92
76994;BME280;66749;47.406;18.822;2023-08-06T00:04:59;99062.91;;;19.71;96.04
76994;BME280;66749;47.406;18.822;2023-08-06T00:05:31;99067.56;;;19.69;96.51
76994;BME280;66749;47.406;18.822;2023-08-06T00:06:05;99062.28;;;19.69;96.59
76994;BME280;66749;47.406;18.822;2023-08-06T00:06:37;99059.25;;;19.72;96.74
76994;BME280;66749;47.406;18.822;2023-08-06T00:07:09;99062.91;;;19.71;96.22
76994;BME280;66749;47.406;18.822;2023-08-06T00:07:41;99055.16;;;19.70;96.75
76994;BME280;66749;47.406;18.822;2023-08-06T00:08:13;99048.84;;;19.71;96.22
76994;BME280;66749;47.406;18.822;2023-08-06T00:08:45;99056.63;;;19.72;96.85
76994;BME280;66749;47.406;18.822;2023-08-06T00:09:17;99054.97;;;19.71;96.23
76994;BME280;66749;47.406;18.822;2023-08-06T00:09:49;99058.63;;;19.70;96.86
76994;BME280;66749;47.406;18.822;2023-08-06T00:10:20;99048.69;;;19.72;96.03
76994;BME280;66749;47.406;18.822;2023-08-06T00:10:52;99061.91;;;19.72;96.27
76994;BME280;66749;47.406;18.822;2023-08-06T00:11:24;99061.09;;;19.72;96.91
76994;BME280;66749;47.406;18.822;2023-08-06T00:11:56;99054.81;;;19.73;96.30
76994;BME280;66749;47.406;18.822;2023-08-06T00:12:28;99059.44;;;19.71;95.95
76994;BME280;66749;47.406;18.822;2023-08-06T00:13:00;99066.56;;;19.70;96.08
76994;BME280;66749;47.406;18.822;2023-08-06T00:13:31;99065.63;;;19.63;96.04
76994;BME280;66749;47.406;18.822;2023-08-06T00:14:03;99075.06;;;19.65;96.08
76994;BME280;66749;47.406;18.822;2023-08-06T00:14:35;99068.56;;;19.68;96.32
76994;BME280;66749;47.406;18.822;2023-08-06T00:15:08;99063.91;;;19.70;97.03
76994;BME280;66749;47.406;18.822;2023-08-06T00:15:40;99072.03;;;19.68;96.58
76994;BME280;66749;47.406;18.822;2023-08-06T00:16:12;99068.41;;;19.70;96.24
76994;BME280;66749;47.406;18.822;2023-08-06T00:16:45;99063.28;;;19.68;96.08
76994;BME280;66749;47.406;18.822;2023-08-06T00:17:17;99072.22;;;19.67;96.92
76994;BME280;66749;47.406;18.822;2023-08-06T00:17:49;99065.75;;;19.70;96.84
76994;BME280;66749;47.406;18.822;2023-08-06T00:18:21;99065.94;;;19.68;96.85
76994;BME280;66749;47.406;18.822;2023-08-06T00:18:52;99065.94;;;19.68;96.86
76994;BME280;66749;47.406;18.822;2023-08-06T00:19:24;99058.69;;;19.62;95.74
76994;BME280;66749;47.406;18.822;2023-08-06T00:19:56;99059.88;;;19.59;96.03
76994;BME280;66749;47.406;18.822;2023-08-06T00:20:28;99058.88;;;19.60;95.99
76994;BME280;66749;47.406;18.822;2023-08-06T00:21:00;99051.94;;;19.59;96.32
76994;BME280;66749;47.406;18.822;2023-08-06T00:21:32;99052.94;;;19.58;95.60
76994;BME280;66749;47.406;18.822;2023-08-06T00:22:04;99049.94;;;19.61;95.39
76994;BME280;66749;47.406;18.822;2023-08-06T00:22:37;99052.25;;;19.56;96.22
76994;BME280;66749;47.406;18.822;2023-08-06T00:23:09;99047.31;;;19.53;95.41
76994;BME280;66749;47.406;18.822;2023-08-06T00:23:41;99055.44;;;19.52;96.18
76994;BME280;66749;47.406;18.822;2023-08-06T00:24:13;99055.44;;;19.52;95.75
76994;BME280;66749;47.406;18.822;2023-08-06T00:24:45;99062.38;;;19.53;96.17
76994;BME280;66749;47.406;18.822;2023-08-06T00:25:17;99060.72;;;19.52;95.80
76994;BME280;66749;47.406;18.822;2023-08-06T00:25:49;99058.72;;;19.54;95.61
76994;BME280;66749;47.406;18.822;2023-08-06T00:26:21;99063.38;;;19.52;96.10
76994;BME280;66749;47.406;18.822;2023-08-06T00:26:52;99068.19;;;19.48;96.24
76994;BME280;66749;47.406;18.822;2023-08-06T00:27:25;99064.25;;;19.44;96.34
76994;BME280;66749;47.406;18.822;2023-08-06T00:27:56;99058.59;;;19.47;96.41
76994;BME280;66749;47.406;18.822;2023-08-06T00:28:28;99071.00;;;19.47;96.91
76994;BME280;66749;47.406;18.822;2023-08-06T00:29:00;99070.81;;;19.48;95.92
76994;BME280;66749;47.406;18.822;2023-08-06T00:29:32;99062.72;;;19.50;96.65
76994;BME280;66749;47.406;18.822;2023-08-06T00:30:04;99066.03;;;19.52;96.01
76994;BME280;66749;47.406;18.822;2023-08-06T00:30:36;99069.50;;;19.52;96.58
76994;BME280;66749;47.406;18.822;2023-08-06T00:31:08;99068.47;;;19.53;96.80
76994;BME280;66749;47.406;18.822;2023-08-06T00:31:40;99068.47;;;19.53;96.61
76994;BME280;66749;47.406;18.822;2023-08-06T00:32:12;99076.59;;;19.52;96.00
76994;BME280;66749;47.406;18.822;2023-08-06T00:32:44;99077.44;;;19.52;96.52
76994;BME280;66749;47.406;18.822;2023-08-06T00:33:16;99075.41;;;19.54;95.70
76994;BME280;66749;47.406;18.822;2023-08-06T00:33:48;99079.88;;;19.54;96.52
76994;BME280;66749;47.406;18.822;2023-08-06T00:34:20;99080.72;;;19.54;96.07
76994;BME280;66749;47.406;18.822;2023-08-06T00:34:52;99084.19;;;19.55;96.92
76994;BME280;66749;47.406;18.822;2023-08-06T00:35:24;99080.53;;;19.56;95.96
76994;BME280;66749;47.406;18.822;2023-08-06T00:35:56;99076.41;;;19.53;96.37
76994;BME280;66749;47.406;18.822;2023-08-06T00:36:27;99079.88;;;19.54;95.60
76994;BME280;66749;47.406;18.822;2023-08-06T00:36:59;99086.00;;;19.54;95.77
76994;BME280;66749;47.406;18.822;2023-08-06T00:37:31;99086.19;;;19.53;96.26
76994;BME280;66749;47.406;18.822;2023-08-06T00:38:03;99087.00;;;19.53;96.36
76994;BME280;66749;47.406;18.822;2023-08-06T00:38:35;99087.00;;;19.53;96.28
76994;BME280;66749;47.406;18.822;2023-08-06T00:39:06;99078.06;;;19.54;96.62
76994;BME280;66749;47.406;18.822;2023-08-06T00:39:38;99079.56;;;19.57;96.40
76994;BME280;66749;47.406;18.822;2023-08-06T00:40:10;99082.19;;;19.57;96.35
76994;BME280;66749;47.406;18.822;2023-08-06T00:40:42;99079.72;;;19.55;96.29
76994;BME280;66749;47.406;18.822;2023-08-06T00:41:15;99079.56;;;19.57;96.71
76994;BME280;66749;47.406;18.822;2023-08-06T00:41:46;99076.13;;;19.48;96.86
76994;BME280;66749;47.406;18.822;2023-08-06T00:42:18;99078.31;;;19.45;96.86
76994;BME280;66749;47.406;18.822;2023-08-06T00:42:52;99085.06;;;19.47;96.26
76994;BME280;66749;47.406;18.822;2023-08-06T00:43:24;99073.31;;;19.50;96.23
76994;BME280;66749;47.406;18.822;2023-08-06T00:43:56;99074.97;;;19.51;96.97
76994;BME280;66749;47.406;18.822;2023-08-06T00:44:27;99075.59;;;19.53;96.66
76994;BME280;66749;47.406;18.822;2023-08-06T00:44:59;99070.31;;;19.53;96.90
76994;BME280;66749;47.406;18.822;2023-08-06T00:45:35;99068.47;;;19.53;96.64
76994;BME280;66749;47.406;18.822;2023-08-06T00:46:07;99067.66;;;19.53;96.64
76994;BME280;66749;47.406;18.822;2023-08-06T00:46:39;99067.66;;;19.53;95.99
76994;BME280;66749;47.406;18.822;2023-08-06T00:47:11;99059.53;;;19.54;96.21
76994;BME280;66749;47.406;18.822;2023-08-06T00:47:43;99062.38;;;19.53;96.39
76994;BME280;66749;47.406;18.822;2023-08-06T00:48:15;99064.84;;;19.54;95.64
76994;BME280;66749;47.406;18.822;2023-08-06T00:48:48;99060.53;;;19.53;96.21
76994;BME280;66749;47.406;18.822;2023-08-06T00:49:20;99061.38;;;19.54;96.49
76994;BME280;66749;47.406;18.822;2023-08-06T00:49:52;99063.19;;;19.53;95.82
76994;BME280;66749;47.406;18.822;2023-08-06T00:50:24;99059.72;;;19.53;95.82
76994;BME280;66749;47.406;18.822;2023-08-06T00:50:56;99055.31;;;19.45;95.59
76994;BME280;66749;47.406;18.822;2023-08-06T00:51:27;99050.19;;;19.44;95.75
76994;BME280;66749;47.406;18.822;2023-08-06T00:51:59;99048.56;;;19.43;95.55
76994;BME280;66749;47.406;18.822;2023-08-06T00:52:31;99041.59;;;19.41;95.92
76994;BME280;66749;47.406;18.822;2023-08-06T00:53:03;99044.22;;;19.41;96.31
76994;BME280;66749;47.406;18.822;2023-08-06T00:53:35;99041.94;;;19.38;96.14
76994;BME280;66749;47.406;18.822;2023-08-06T00:54:09;99034.38;;;19.35;96.32
76994;BME280;66749;47.406;18.822;2023-08-06T00:54:41;99036.34;;;19.33;96.48
76994;BME280;66749;47.406;18.822;2023-08-06T00:55:13;99036.53;;;19.32;96.69
76994;BME280;66749;47.406;18.822;2023-08-06T00:55:46;99035.91;;;19.30;95.95
76994;BME280;66749;47.406;18.822;2023-08-06T00:56:19;99042.00;;;19.30;95.90
76994;BME280;66749;47.406;18.822;2023-08-06T00:56:50;99033.06;;;19.31;96.46
76994;BME280;66749;47.406;18.822;2023-08-06T00:57:24;99038.38;;;19.31;96.25
76994;BME280;66749;47.406;18.822;2023-08-06T00:57:57;99029.41;;;19.32;96.25
76994;BME280;66749;47.406;18.822;2023-08-06T00:58:30;99033.75;;;19.25;96.02
76994;BME280;66749;47.406;18.822;2023-08-06T00:59:03;99031.13;;;19.25;95.91
76994;BME280;66749;47.406;18.822;2023-08-06T00:59:35;99031.31;;;19.24;96.77
76994;BME280;66749;47.406;18.822;2023-08-06T01:00:08;99030.28;;;19.25;96.66
76994;BME280;66749;47.406;18.822;2023-08-06T01:00:40;99029.47;;;19.24;96.71
76994;BME280;66749;47.406;18.822;2023-08-06T01:01:12;99032.13;;;19.24;96.57
76994;BME280;66749;47.406;18.822;2023-08-06T01:01:45;99029.47;;;19.24;97.03
76994;BME280;66749;47.406;18.822;2023-08-06T01:02:17;99025.00;;;19.25;97.21
76994;BME280;66749;47.406;18.822;2023-08-06T01:02:49;99026.50;;;19.27;96.74
76994;BME280;66749;47.406;18.822;2023-08-06T01:03:21;99030.78;;;19.28;97.08
76994;BME280;66749;47.406;18.822;2023-08-06T01:03:54;99024.50;;;19.29;97.57
76994;BME280;66749;47.406;18.822;2023-08-06T01:04:26;99022.84;;;19.28;97.60
76994;BME280;66749;47.406;18.822;2023-08-06T01:04:58;99022.84;;;19.28;97.26
76994;BME280;66749;47.406;18.822;2023-08-06T01:05:30;99023.19;;;19.25;97.28
76994;BME280;66749;47.406;18.822;2023-08-06T01:06:02;99020.72;;;19.24;96.93
76994;BME280;66749;47.406;18.822;2023-08-06T01:06:47;99017.91;;;19.25;97.00
76994;BME280;66749;47.406;18.822;2023-08-06T01:07:43;99021.34;;;19.26;96.79
76994;BME280;66749;47.406;18.822;2023-08-06T01:08:54;99021.03;;;19.29;96.74
76994;BME280;66749;47.406;18.822;2023-08-06T01:09:57;99010.44;;;19.29;97.46
76994;BME280;66749;47.406;18.822;2023-08-06T01:10:59;99011.66;;;19.18;96.71
76994;BME280;66749;47.406;18.822;2023-08-06T01:11:59;99013.78;;;19.23;96.22
76994;BME280;66749;47.406;18.822;2023-08-06T01:13:41;99017.06;;;19.25;96.18
76994;BME280;66749;47.406;18.822;2023-08-06T01:15:53;99013.59;;;19.24;96.63
76994;BME280;66749;47.406;18.822;2023-08-06T01:16:28;99023.19;;;19.25;96.11
76994;BME280;66749;47.406;18.822;2023-08-06T01:17:01;99011.59;;;19.26;96.04
76994;BME280;66749;47.406;18.822;2023-08-06T01:17:34;99010.97;;;19.24;96.32
76994;BME280;66749;47.406;18.822;2023-08-06T01:18:07;99014.25;;;19.26;96.38
76994;BME280;66749;47.406;18.822;2023-08-06T01:18:39;99011.28;;;19.29;96.75
76994;BME280;66749;47.406;18.822;2023-08-06T01:19:19;99018.38;;;19.29;96.16
76994;BME280;66749;47.406;18.822;2023-08-06T01:19:51;99008.81;;;19.28;96.36
76994;BME280;66749;47.406;18.822;2023-08-06T01:20:28;99006.97;;;19.28;95.78
76994;BME280;66749;47.406;18.822;2023-08-06T01:21:00;99005.97;;;19.29;96.68
76994;BME280;66749;47.406;18.822;2023-08-06T01:21:31;99007.63;;;19.30;96.03
76994;BME280;66749;47.406;18.822;2023-08-06T01:22:03;99007.81;;;19.29;96.22
76994;BME280;66749;47.406;18.822;2023-08-06T01:22:36;99010.44;;;19.29;96.28
76994;BME280;66749;47.406;18.822;2023-08-06T01:23:08;99004.66;;;19.25;97.01
76994;BME280;66749;47.406;18.822;2023-08-06T01:23:41;99004.47;;;19.27;96.43
76994;BME280;66749;47.406;18.822;2023-08-06T01:24:13;99005.34;;;19.27;96.55
76994;BME280;66749;47.406;18.822;2023-08-06T01:24:48;98997.22;;;19.29;96.20
76994;BME280;66749;47.406;18.822;2023-08-06T01:25:35;99005.16;;;19.29;96.38
76994;BME280;66749;47.406;18.822;2023-08-06T01:26:53;98998.22;;;19.28;96.18
76994;BME280;66749;47.406;18.822;2023-08-06T01:27:34;99004.47;;;19.27;96.45
76994;BME280;66749;47.406;18.822;2023-08-06T01:29:44;99007.84;;;19.21;96.57
76994;BME280;66749;47.406;18.822;2023-08-06T01:30:27;99006.22;;;19.20;95.75
76994;BME280;66749;47.406;18.822;2023-08-06T01:31:05;99006.09;;;19.13;96.15
76994;BME280;66749;47.406;18.822;2023-08-06T01:31:41;99000.81;;;19.13;95.45
76994;BME280;66749;47.406;18.822;2023-08-06T01:32:15;99001.91;;;19.19;95.96
76994;BME280;66749;47.406;18.822;2023-08-06T01:32:50;98998.63;;;19.17;95.54
76994;BME280;66749;47.406;18.822;2023-08-06T01:33:27;99005.53;;;19.18;95.58
76994;BME280;66749;47.406;18.822;2023-08-06T01:34:03;99003.13;;;19.08;95.39
76994;BME280;66749;47.406;18.822;2023-08-06T01:34:39;99002.63;;;19.12;95.56
76994;BME280;66749;47.406;18.822;2023-08-06T01:35:15;99009.75;;;19.12;95.24
76994;BME280;66749;47.406;18.822;2023-08-06T01:35:49;99009.06;;;19.10;95.46
76994;BME280;66749;47.406;18.822;2023-08-06T01:36:22;99007.25;;;19.10;95.59
76994;BME280;66749;47.406;18.822;2023-08-06T01:36:54;99007.09;;;19.12;95.63
76994;BME280;66749;47.406;18.822;2023-08-06T01:37:27;99006.09;;;19.13;95.39
76994;BME280;66749;47.406;18.822;2023-08-06T01:38:02;99000.63;;;19.15;95.92
76994;BME280;66749;47.406;18.822;2023-08-06T01:38:35;99006.53;;;19.17;95.51
76994;BME280;66749;47.406;18.822;2023-08-06T01:39:06;99005.28;;;19.12;95.70
76994;BME280;66749;47.406;18.822;2023-08-06T01:39:42;99002.63;;;19.12;96.25
76994;BME280;66749;47.406;18.822;2023-08-06T01:40:14;98998.47;;;19.10;95.59
76994;BME280;66749;47.406;18.822;2023-08-06T01:40:46;99001.94;;;19.10;95.19
76994;BME280;66749;47.406;18.822;2023-08-06T01:41:18;98999.31;;;19.10;95.25
76994;BME280;66749;47.406;18.822;2023-08-06T01:41:50;98998.31;;;19.11;95.76
76994;BME280;66749;47.406;18.822;2023-08-06T01:42:22;98996.34;;;19.13;95.10
76994;BME280;66749;47.406;18.822;2023-08-06T01:42:54;98994.31;;;19.16;95.86
76994;BME280;66749;47.406;18.822;2023-08-06T01:43:26;98999.63;;;19.16;95.80
76994;BME280;66749;47.406;18.822;2023-08-06T01:43:57;98989.84;;;19.16;95.70
76994;BME280;66749;47.406;18.822;2023-08-06T01:44:29;98990.56;;;19.10;96.37
76994;BME280;66749;47.406;18.822;2023-08-06T01:45:01;98987.09;;;19.09;96.18
76994;BME280;66749;47.406;18.822;2023-08-06T01:45:33;98988.72;;;19.10;95.86
76994;BME280;66749;47.406;18.822;2023-08-06T01:46:05;98993.88;;;19.12;95.40
76994;BME280;66749;47.406;18.822;2023-08-06T01:46:37;98993.88;;;19.12;95.65
76994;BME280;66749;47.406;18.822;2023-08-06T01:47:09;98988.22;;;19.15;95.47
76994;BME280;66749;47.406;18.822;2023-08-06T01:47:41;98989.03;;;19.16;96.09
76994;BME280;66749;47.406;18.822;2023-08-06T01:48:13;98995.16;;;19.16;96.04
76994;BME280;66749;47.406;18.822;2023-08-06T01:48:45;98995.50;;;19.13;95.69
76994;BME280;66749;47.406;18.822;2023-08-06T01:49:16;98989.03;;;19.16;95.46
76994;BME280;66749;47.406;18.822;2023-08-06T01:49:48;98982.94;;;19.15;95.58
76994;BME280;66749;47.406;18.822;2023-08-06T01:50:20;98985.22;;;19.18;96.03
76994;BME280;66749;47.406;18.822;2023-08-06T01:50:52;98989.69;;;19.18;95.41
76994;BME280;66749;47.406;18.822;2023-08-06T01:51:24;98985.06;;;19.20;95.29
76994;BME280;66749;47.406;18.822;2023-08-06T01:51:56;98981.56;;;19.19;95.20
76994;BME280;66749;47.406;18.822;2023-08-06T01:52:28;98986.84;;;19.19;95.51
76994;BME280;66749;47.406;18.822;2023-08-06T01:53:00;98980.75;;;19.19;96.08
76994;BME280;66749;47.406;18.822;2023-08-06T01:53:33;98986.03;;;19.19;95.52
76994;BME280;66749;47.406;18.822;2023-08-06T01:54:05;98977.44;;;19.17;95.62
76994;BME280;66749;47.406;18.822;2023-08-06T01:54:37;98971.34;;;19.16;95.95
76994;BME280;66749;47.406;18.822;2023-08-06T01:55:08;98978.28;;;19.17;95.07
76994;BME280;66749;47.406;18.822;2023-08-06T01:55:41;98972.34;;;19.15;95.34
76994;BME280;66749;47.406;18.822;2023-08-06T01:56:12;98966.06;;;19.16;94.83
76994;BME280;66749;47.406;18.822;2023-08-06T01:56:44;98974.81;;;19.17;95.75
76994;BME280;66749;47.406;18.822;2023-08-06T01:57:16;98971.34;;;19.16;95.53
76994;BME280;66749;47.406;18.822;2023-08-06T01:57:48;98971.34;;;19.16;95.18
76994;BME280;66749;47.406;18.822;2023-08-06T01:58:20;98964.41;;;19.15;95.88
76994;BME280;66749;47.406;18.822;2023-08-06T01:58:52;98975.63;;;19.17;95.37
76994;BME280;66749;47.406;18.822;2023-08-06T01:59:24;98968.69;;;19.16;95.48
76994;BME280;66749;47.406;18.822;2023-08-06T01:59:55;98970.06;;;19.12;94.86
76994;BME280;66749;47.406;18.822;2023-08-06T02:00:27;98959.31;;;19.13;95.21
76994;BME280;66749;47.406;18.822;2023-08-06T02:01:01;98962.13;;;19.12;95.49
76994;BME280;66749;47.406;18.822;2023-08-06T02:01:33;98955.84;;;19.13;94.63
76994;BME280;66749;47.406;18.822;2023-08-06T02:02:05;98955.34;;;19.09;95.40
76994;BME280;66749;47.406;18.822;2023-08-06T02:02:37;98956.03;;;19.03;95.14
76994;BME280;66749;47.406;18.822;2023-08-06T02:03:09;98949.31;;;19.01;95.38
76994;BME280;66749;47.406;18.822;2023-08-06T02:03:41;98953.94;;;18.99;95.66
76994;BME280;66749;47.406;18.822;2023-08-06T02:04:13;98952.31;;;18.98;96.23
76994;BME280;66749;47.406;18.822;2023-08-06T02:04:45;98947.03;;;18.98;96.16
76994;BME280;66749;47.406;18.822;2023-08-06T02:05:16;98947.66;;;19.00;95.97
76994;BME280;66749;47.406;18.822;2023-08-06T02:05:48;98955.22;;;19.03;96.32
76994;BME280;66749;47.406;18.822;2023-08-06T02:06:20;98954.22;;;19.04;96.21
76994;BME280;66749;47.406;18.822;2023-08-06T02:06:52;98956.72;;;19.05;96.07
76994;BME280;66749;47.406;18.822;2023-08-06T02:07:24;98947.28;;;19.03;95.87
76994;BME280;66749;47.406;18.822;2023-08-06T02:07:56;98951.59;;;19.04;95.21
76994;BME280;66749;47.406;18.822;2023-08-06T02:08:27;98944.50;;;19.04;95.14
76994;BME280;66749;47.406;18.822;2023-08-06T02:08:59;98942.00;;;19.03;96.08
76994;BME280;66749;47.406;18.822;2023-08-06T02:09:31;98943.66;;;19.04;95.63
76994;BME280;66749;47.406;18.822;2023-08-06T02:10:03;98944.31;;;19.06;96.45
76994;BME280;66749;47.406;18.822;2023-08-06T02:10:35;98945.13;;;19.06;96.36
76994;BME280;66749;47.406;18.822;2023-08-06T02:11:07;98941.50;;;19.07;96.59
76994;BME280;66749;47.406;18.822;2023-08-06T02:11:39;98941.66;;;19.06;96.66
76994;BME280;66749;47.406;18.822;2023-08-06T02:12:11;98937.38;;;19.05;96.04
76994;BME280;66749;47.406;18.822;2023-08-06T02:12:42;98944.13;;;19.07;96.10
76994;BME280;66749;47.406;18.822;2023-08-06T02:13:14;98941.66;;;19.06;95.79
76994;BME280;66749;47.406;18.822;2023-08-06T02:13:46;98936.56;;;19.04;95.67
76994;BME280;66749;47.406;18.822;2023-08-06T02:14:18;98937.19;;;19.06;96.19
76994;BME280;66749;47.406;18.822;2023-08-06T02:14:50;98936.19;;;19.07;95.83
76994;BME280;66749;47.406;18.822;2023-08-06T02:15:22;98938.84;;;19.07;95.42
76994;BME280;66749;47.406;18.822;2023-08-06T02:15:53;98934.75;;;19.05;95.81
76994;BME280;66749;47.406;18.822;2023-08-06T02:16:25;98939.66;;;19.08;95.38
76994;BME280;66749;47.406;18.822;2023-08-06T02:16:57;98929.91;;;19.08;95.49
76994;BME280;66749;47.406;18.822;2023-08-06T02:17:29;98936.03;;;19.09;95.87
76994;BME280;66749;47.406;18.822;2023-08-06T02:18:01;98933.19;;;19.10;95.71
76994;BME280;66749;47.406;18.822;2023-08-06T02:18:33;98931.22;;;19.12;95.89
76994;BME280;66749;47.406;18.822;2023-08-06T02:19:05;98934.69;;;19.13;95.94
76994;BME280;66749;47.406;18.822;2023-08-06T02:19:37;98928.56;;;19.12;96.59
76994;BME280;66749;47.406;18.822;2023-08-06T02:20:09;98930.22;;;19.13;96.65
76994;BME280;66749;47.406;18.822;2023-08-06T02:20:42;98929.38;;;19.13;96.15
76994;BME280;66749;47.406;18.822;2023-08-06T02:21:13;98929.72;;;19.10;95.86
76994;BME280;66749;47.406;18.822;2023-08-06T02:21:45;98927.75;;;19.12;95.92
76994;BME280;66749;47.406;18.822;2023-08-06T02:22:17;98930.41;;;19.12;95.61
76994;BME280;66749;47.406;18.822;2023-08-06T02:22:49;98925.94;;;19.12;95.56
76994;BME280;66749;47.406;18.822;2023-08-06T02:23:21;98921.59;;;19.11;95.92
76994;BME280;66749;47.406;18.822;2023-08-06T02:23:53;98924.09;;;19.13;96.20
76994;BME280;66749;47.406;18.822;2023-08-06T02:24:24;98927.75;;;19.12;96.62
76994;BME280;66749;47.406;18.822;2023-08-06T02:24:56;98930.22;;;19.13;96.16
76994;BME280;66749;47.406;18.822;2023-08-06T02:25:28;98930.22;;;19.13;95.93
76994;BME280;66749;47.406;18.822;2023-08-06T02:26:04;98921.47;;;19.13;95.57
76994;BME280;66749;47.406;18.822;2023-08-06T02:26:36;98924.09;;;19.13;95.65
76994;BME280;66749;47.406;18.822;2023-08-06T02:27:08;98925.09;;;19.12;95.25
76994;BME280;66749;47.406;18.822;2023-08-06T02:27:40;98924.75;;;19.15;96.10
76994;BME280;66749;47.406;18.822;2023-08-06T02:28:12;98927.38;;;19.15;96.15
76994;BME280;66749;47.406;18.822;2023-08-06T02:28:44;98925.38;;;19.17;95.83
76994;BME280;66749;47.406;18.822;2023-08-06T02:29:15;98926.19;;;19.18;95.75
76994;BME280;66749;47.406;18.822;2023-08-06T02:29:47;98928.84;;;19.18;96.03
76994;BME280;66749;47.406;18.822;2023-08-06T02:30:19;98930.47;;;19.19;95.95
76994;BME280;66749;47.406;18.822;2023-08-06T02:30:51;98933.94;;;19.19;96.27
76994;BME280;66749;47.406;18.822;2023-08-06T02:31:23;98923.72;;;19.16;96.34
76994;BME280;66749;47.406;18.822;2023-08-06T02:31:55;98928.84;;;19.18;96.41
76994;BME280;66749;47.406;18.822;2023-08-06T02:32:27;98925.56;;;19.16;96.47
76994;BME280;66749;47.406;18.822;2023-08-06T02:33:01;98915.50;;;19.11;95.71
76994;BME280;66749;47.406;18.822;2023-08-06T02:33:33;98919.63;;;19.13;95.59
76994;BME280;66749;47.406;18.822;2023-08-06T02:34:05;98923.72;;;19.16;96.04
76994;BME280;66749;47.406;18.822;2023-08-06T02:34:36;98926.38;;;19.16;95.54
76994;BME280;66749;47.406;18.822;2023-08-06T02:35:08;98927.00;;;19.18;95.38
76994;BME280;66749;47.406;18.822;2023-08-06T02:35:40;98926.19;;;19.18;96.17
76994;BME280;66749;47.406;18.822;2023-08-06T02:36:12;98921.09;;;19.16;96.05
76994;BME280;66749;47.406;18.822;2023-08-06T02:36:44;98917.00;;;19.13;96.40
76994;BME280;66749;47.406;18.822;2023-08-06T02:37:16;98919.81;;;19.12;95.98
76994;BME280;66749;47.406;18.822;2023-08-06T02:37:47;98916.31;;;19.11;95.65
76994;BME280;66749;47.406;18.822;2023-08-06T02:38:19;98920.78;;;19.11;95.26
76994;BME280;66749;47.406;18.822;2023-08-06T02:38:51;98916.81;;;19.15;95.31
76994;BME280;66749;47.406;18.822;2023-08-06T02:39:23;98915.81;;;19.16;94.82
76994;BME280;66749;47.406;18.822;2023-08-06T02:39:55;98910.69;;;19.15;94.65
76994;BME280;66749;47.406;18.822;2023-08-06T02:40:27;98907.41;;;19.12;95.47
76994;BME280;66749;47.406;18.822;2023-08-06T02:40:58;98911.69;;;19.13;95.04
76994;BME280;66749;47.406;18.822;2023-08-06T02:41:30;98913.53;;;19.13;95.12
76994;BME280;66749;47.406;18.822;2023-08-06T02:42:02;98909.06;;;19.13;95.48
76994;BME280;66749;47.406;18.822;2023-08-06T02:42:34;98910.22;;;19.11;94.95
76994;BME280;66749;47.406;18.822;2023-08-06T02:43:06;98908.22;;;19.13;95.59
76994;BME280;66749;47.406;18.822;2023-08-06T02:43:38;98907.56;;;19.11;94.77
76994;BME280;66749;47.406;18.822;2023-08-06T02:44:10;98910.06;;;19.12;95.43
76994;BME280;66749;47.406;18.822;2023-08-06T02:44:42;98897.66;;;19.13;95.07
76994;BME280;66749;47.406;18.822;2023-08-06T02:45:13;98906.09;;;19.08;94.78
76994;BME280;66749;47.406;18.822;2023-08-06T02:45:45;98903.84;;;19.05;95.32
76994;BME280;66749;47.406;18.822;2023-08-06T02:46:17;98903.97;;;19.04;95.21
76994;BME280;66749;47.406;18.822;2023-08-06T02:46:49;98896.91;;;19.04;95.17
76994;BME280;66749;47.406;18.822;2023-08-06T02:47:21;98908.75;;;19.08;94.55
76994;BME280;66749;47.406;18.822;2023-08-06T02:47:53;98903.28;;;19.10;94.95
76994;BME280;66749;47.406;18.822;2023-08-06T02:48:25;98900.38;;;19.05;94.64
76994;BME280;66749;47.406;18.822;2023-08-06T02:48:57;98901.19;;;19.05;93.91
76994;BME280;66749;47.406;18.822;2023-08-06T02:49:28;98904.97;;;19.03;95.01
76994;BME280;66749;47.406;18.822;2023-08-06T02:50:00;98902.00;;;19.06;94.50
76994;BME280;66749;47.406;18.822;2023-08-06T02:50:39;98909.75;;;19.07;94.21
76994;BME280;66749;47.406;18.822;2023-08-06T02:51:11;98902.81;;;19.06;94.34
76994;BME280;66749;47.406;18.822;2023-08-06T02:51:45;98902.19;;;19.04;94.94
76994;BME280;66749;47.406;18.822;2023-08-06T02:52:17;98902.00;;;19.06;94.60
76994;BME280;66749;47.406;18.822;2023-08-06T02:52:49;98908.28;;;19.05;95.29
76994;BME280;66749;47.406;18.822;2023-08-06T02:53:21;98908.94;;;19.07;95.00
76994;BME280;66749;47.406;18.822;2023-08-06T02:53:52;98903.66;;;19.07;95.21
76994;BME280;66749;47.406;18.822;2023-08-06T02:54:24;98905.09;;;19.09;94.84
76994;BME280;66749;47.406;18.822;2023-08-06T02:54:56;98901.47;;;19.10;95.49
76994;BME280;66749;47.406;18.822;2023-08-06T02:55:31;98905.28;;;19.08;94.38
76994;BME280;66749;47.406;18.822;2023-08-06T02:56:03;98901.63;;;19.09;94.22
76994;BME280;66749;47.406;18.822;2023-08-06T02:56:35;98907.56;;;19.11;94.29
76994;BME280;66749;47.406;18.822;2023-08-06T02:57:07;98905.94;;;19.10;94.04